• Join FlightAware (Why Join?)
  • Login
  • US Flag 
07:27AM EDT


 

Airport Tracker/Info


-or-


 

Live Flight TrackerFlight Track Log ✈ EGF4174 ✈ 20-Apr-2013 ✈ KSYR - KORD

Flight Track Log - Related Links

Times and Time Zones

All times are in EDT time to prevent confusion due to time zone crossing. See the EGF4174 flight status page for this flight to view local times or setup timezone preferences in your user account.

Time Position Orientation Groundspeed Altitude Reporting Facility
EDT Latitude Longitude Course Direction KTS MPH feet Rate Location/Type
05:26PM 43.1078 -76.1261 286° West 134 154 1,100  Level Boston Center
05:26PM 43.1064 -76.1689 267° West 159 183 2,900 2,460 Climbing Boston Center
05:28PM 43.1833 -76.4131 270° West  Level FlightAware Approximate
05:28PM 43.1264 -76.2817 284° West 175 201 6,800  Level Cleveland Center
05:29PM 43.2022 -76.5152 281° West  Level FlightAware Approximate
05:29PM 43.1583 -76.3592 299° West 196 226 9,600  Level Cleveland Center
05:30PM 43.2189 -76.6269 286° West  Level FlightAware Approximate
05:30PM 43.1947 -76.4422 301° West 234 269 11,400  Level Cleveland Center
05:31PM 43.2424 -76.7363 286° West  Level FlightAware Approximate
05:31PM 43.2192 -76.5433 288° West 264 304 12,800  Level Cleveland Center
05:32PM 43.2378 -76.6561 283° West 286 329 14,100 1,320 Climbing Cleveland Center
05:33PM 43.2583 -76.7717 284° West 306 352 15,500 1,380 Climbing Cleveland Center
05:34PM 43.2747 -76.8933 281° West 319 367 16,900 1,200 Climbing Cleveland Center
05:35PM 43.2950 -77.0119 283° West 319 367 18,000 1,200 Climbing Cleveland Center
05:36PM 43.3092 -77.1308 279° West 319 367 19,400 1,380 Climbing Cleveland Center
05:37PM 43.2958 -77.2486 261° West 312 359 20,800 1,320 Climbing Cleveland Center
05:38PM 43.2783 -77.3636 258° West 312 359 22,100 1,320 Climbing Cleveland Center
05:39PM 43.2650 -77.4842 261° West 317 365 23,500 1,320 Climbing Cleveland Center
05:40PM 43.2492 -77.5989 259° West 317 365 24,800 1,260 Climbing Cleveland Center
05:41PM 43.2311 -77.7111 258° West 317 365 26,100 1,200 Climbing Cleveland Center
05:42PM 43.2172 -77.8256 261° West 317 365 27,300 1,200 Climbing Cleveland Center
05:43PM 43.2011 -77.9403 259° West 317 365 28,500 1,200 Climbing Cleveland Center
05:44PM 43.1850 -78.0547 259° West 317 365 29,800 1,200 Climbing Cleveland Center
05:45PM 43.1686 -78.1694 259° West 317 365 31,000 1,200 Climbing Cleveland Center
05:46PM 43.1522 -78.2867 259° West 317 365 32,200 1,200 Climbing Cleveland Center
05:47PM 43.1403 -78.4153 263° West 317 365 33,400 1,200 Climbing Cleveland Center
05:48PM 43.1383 -78.5433 269° West 333 383 34,600 1,140 Climbing Cleveland Center
05:49PM 43.1342 -78.6686 267° West 333 383 35,700 660 Climbing Cleveland Center
05:50PM 43.1322 -78.7967 269° West 333 383 36,000 120 Climbing Cleveland Center
05:51PM 43.1281 -78.9392 268° West 356 410 36,000  Level Cleveland Center
05:52PM 43.1167 -79.0667 263° West 370 426 36,000  Level Toronto Center
05:53PM 43.1167 -79.2000 270° West 370 426 36,000  Level Toronto Center
05:54PM 43.1000 -79.3333 260° West 370 426 36,000  Level Toronto Center
05:55PM 43.1000 -79.4667 270° West 380 437 36,000  Level Toronto Center
05:56PM 43.1000 -79.6333 270° West 370 426 36,000  Level Toronto Center
05:57PM 43.0833 -79.7667 260° West 360 414 36,000  Level Toronto Center
05:58PM 43.0833 -79.8833 270° West 360 414 36,000  Level Toronto Center
05:59PM 43.0833 -80.0500 270° West 350 403 36,000  Level Toronto Center
06:00PM 43.0667 -80.1833 260° West 360 414 36,000  Level Toronto Center
06:01PM 43.0667 -80.3167 270° West 380 437 36,000  Level Toronto Center
06:02PM 43.0667 -80.4500 270° West 380 437 36,000  Level Toronto Center
06:03PM 43.0500 -80.6167 262° West 380 437 36,000  Level Toronto Center
06:04PM 43.0500 -80.7500 270° West 380 437 36,000  Level Toronto Center
06:05PM 43.0333 -80.8833 260° West 380 437 36,000  Level Toronto Center
06:06PM 43.0333 -81.0167 270° West 380 437 36,000  Level Toronto Center
06:07PM 43.0167 -81.1833 262° West 390 449 36,000  Level Toronto Center
06:08PM 43.0167 -81.3167 270° West 390 449 36,000  Level Toronto Center
06:09PM 43.0167 -81.4833 270° West 390 449 36,000  Level Toronto Center
06:10PM 43.0167 -81.6333 270° West 380 437 36,000  Level Toronto Center
06:11PM 43.0167 -81.7833 270° West 390 449 36,000  Level Toronto Center
06:12PM 43.0000 -81.9333 261° West 390 449 36,000  Level Toronto Center
06:13PM 43.0000 -82.0667 270° West 390 449 36,000  Level Toronto Center
06:14PM 43.0000 -82.2333 270° West 390 449 36,000  Level Toronto Center
06:15PM 43.0000 -82.3667 270° West 390 449 36,000  Level Toronto Center
06:16PM 43.0000 -82.5333 270° West 390 449 36,000 -180 Level Toronto Center
06:17PM 43.0039 -82.6811 272° West 392 451 35,700 -720 Descending Cleveland Center
06:18PM 42.9969 -82.8258 266° West 392 451 34,600 -1,140 Descending Cleveland Center
06:19PM 42.9939 -82.9703 268° West 387 445 33,500 -1,140 Descending Cleveland Center
06:20PM 42.9892 -83.0950 267° West 362 417 32,400 -780 Descending Cleveland Center
06:21PM 42.9842 -83.2367 267° West 362 417 32,000 -240 Descending Cleveland Center
06:22PM 42.9808 -83.3728 268° West 362 417 32,000  Level Cleveland Center
06:23PM 42.9731 -83.5144 266° West 368 423 32,000  Level Cleveland Center
06:24PM 42.9675 -83.6533 267° West 368 423 32,000  Level Cleveland Center
06:25PM 42.9594 -83.7975 266° West 368 423 32,000  Level Cleveland Center
06:26PM 42.9472 -83.9331 263° West 368 423 32,000  Level Cleveland Center
06:27PM 42.9347 -84.0714 263° West 368 423 32,000  Level Cleveland Center
06:29PM 42.9136 -84.3025 263° West 380 437 32,000  Level Chicago Center
06:30PM 42.8981 -84.4472 262° West 386 444 32,000  Level Chicago Center
06:31PM 42.8842 -84.5917 263° West 385 443 32,000  Level Chicago Center
06:32PM 42.8692 -84.7325 262° West 379 436 32,000  Level Chicago Center
06:33PM 42.8547 -84.8739 262° West 378 435 32,000  Level Chicago Center
06:34PM 42.8400 -85.0142 262° West 374 430 32,000  Level Chicago Center
06:35PM 42.8247 -85.1556 262° West 376 433 32,000  Level Chicago Center
06:36PM 42.8069 -85.3183 262° West 365 420 32,000 -180 Level Chicago Center
06:37PM 42.7919 -85.4569 262° West 368 423 31,700 -1,320 Descending Chicago Center
06:38PM 42.7708 -85.5950 258° West 371 427 29,400 -2,400 Descending Chicago Center
06:39PM 42.7456 -85.7328 256° West 372 428 26,900 -2,580 Descending Chicago Center
06:40PM 42.7200 -85.8703 256° West 373 429 24,200 -2,640 Descending Chicago Center
06:41PM 42.6964 -86.0017 256° West 360 414 21,600 -1,860 Descending Chicago Center
06:42PM 42.6722 -86.1314 256° West 354 407 20,400 -840 Descending Chicago Center
06:43PM 42.6483 -86.2617 256° West 353 406 20,000 -240 Descending Chicago Center
06:44PM 42.6242 -86.3900 256° West 351 404 20,000  Level Chicago Center
06:45PM 42.5997 -86.5194 256° West 355 409 20,000 -780 Level Chicago Center
06:46PM 42.5753 -86.6492 256° West 354 407 18,500 -1,800 Descending Chicago Center
06:47PM 42.5414 -86.8047 254° West 362 417 16,400 -2,040 Descending Chicago Center
06:48PM 42.5075 -86.9294 250° West 354 407 14,400 -1,980 Descending Chicago Center
06:49PM 42.4747 -87.0425 249° West 329 379 12,400 -1,620 Descending Chicago Center
06:50PM 42.4467 -87.1461 250° West 296 341 11,200 -1,140 Descending Chicago Center
06:51PM 42.4192 -87.2433 249° West 281 323 10,100 -600 Descending Chicago Center
06:52PM 42.3931 -87.3397 250° West 276 318 10,000 -60 Descending Chicago Center
06:53PM 42.3639 -87.4450 249° West 275 316 10,000 -300 Level Chicago Center
06:54PM 42.3353 -87.5392 248° West 275 316 9,400 -840 Descending Chicago Center
06:55PM 42.2775 -87.6056 220° Southwest 274 315 8,400 -1,020 Descending Chicago Center
06:56PM 42.2236 -87.6572 215° Southwest 242 278 7,400 -720 Descending Chicago Center
06:57PM 42.1969 -87.7200 240° Southwest 208 239 7,000 -240 Descending Chicago Center
06:58PM 42.1931 -87.7819 265° West 173 199 7,000 -120 Level Chicago Center
06:59PM 42.1889 -87.8578 266° West 172 198 6,800 -600 Descending Chicago Center
07:00PM 42.1861 -87.9169 266° West 163 188 5,800 -1,080 Descending Chicago Center
07:01PM 42.1722 -87.9750 252° West 173 199 4,700 -1,140 Descending Chicago Center